createdAt,value
2018-04-25T00:00:46.119Z,77.30
2018-04-25T00:05:40.558Z,77.00
2018-04-25T00:10:35.073Z,76.50
2018-04-25T00:15:29.449Z,76.40
2018-04-25T00:20:23.864Z,77.10
2018-04-25T00:25:18.960Z,77.40
2018-04-25T00:30:13.546Z,77.70
2018-04-25T00:35:08.694Z,78.30
2018-04-25T00:40:03.072Z,78.20
2018-04-25T00:44:58.229Z,78.10
2018-04-25T00:49:52.634Z,78.00
2018-04-25T00:54:47.001Z,77.90
2018-04-25T00:59:42.163Z,77.40
2018-04-25T01:04:36.506Z,77.40
2018-04-25T01:09:30.888Z,77.30
2018-04-25T01:14:25.318Z,76.50
2018-04-25T01:19:19.702Z,77.00
2018-04-25T01:24:13.555Z,77.20
2018-04-25T01:29:07.992Z,77.50
2018-04-25T01:34:12.808Z,77.50
2018-04-25T01:39:25.860Z,77.30
2018-04-25T01:44:38.922Z,77.20
2018-04-25T01:49:36.846Z,77.00
2018-04-25T01:54:49.334Z,76.40
2018-04-25T02:00:00.712Z,76.40
2018-04-25T02:04:55.097Z,76.40
2018-04-25T02:09:49.475Z,76.20
2018-04-25T02:14:44.377Z,75.80
2018-04-25T02:19:38.849Z,75.80
2018-04-25T02:24:33.216Z,75.80
2018-04-25T02:29:27.569Z,75.70
2018-04-25T02:34:21.962Z,75.70
2018-04-25T02:39:16.354Z,75.70
2018-04-25T02:44:10.471Z,75.90
2018-04-25T02:49:04.847Z,75.80
2018-04-25T02:53:59.208Z,76.20
2018-04-25T02:58:54.437Z,76.80
2018-04-25T03:03:48.935Z,76.70
2018-04-25T03:08:44.064Z,77.30
2018-04-25T03:13:39.265Z,77.20
2018-04-25T03:18:33.688Z,77.00
2018-04-25T03:23:28.852Z,77.70
2018-04-25T03:28:23.228Z,77.60
2018-04-25T03:33:21.622Z,78.10
2018-04-25T03:38:15.990Z,78.60
2018-04-25T03:43:10.553Z,78.90
2018-04-25T03:48:05.031Z,79.20
2018-04-25T03:52:59.407Z,79.80
2018-04-25T03:57:54.069Z,80.00
2018-04-25T04:02:48.467Z,80.40
2018-04-25T04:07:43.351Z,80.80
2018-04-25T04:12:37.834Z,81.30
2018-04-25T04:17:32.294Z,81.60
2018-04-25T04:22:26.709Z,81.70
2018-04-25T04:27:21.107Z,81.90
2018-04-25T04:32:15.550Z,82.10
2018-04-25T04:37:09.945Z,82.30
2018-04-25T04:42:04.324Z,82.50
2018-04-25T04:46:58.708Z,82.40
2018-04-25T04:51:54.775Z,83.10
2018-04-25T04:56:49.188Z,82.50
2018-04-25T05:01:43.565Z,82.50
2018-04-25T05:06:37.918Z,82.90
2018-04-25T05:11:32.304Z,82.70
2018-04-25T05:16:26.799Z,83.30
2018-04-25T05:21:21.201Z,82.50
2018-04-25T05:26:15.564Z,81.40
2018-04-25T05:31:09.958Z,81.20
2018-04-25T05:36:05.115Z,82.40
2018-04-25T05:40:59.495Z,82.20
2018-04-25T05:45:53.959Z,82.50
2018-04-25T05:50:49.246Z,82.10
2018-04-25T05:55:43.626Z,82.10
2018-04-25T06:00:38.049Z,82.00
2018-04-25T06:05:32.449Z,82.10
2018-04-25T06:10:27.932Z,84.10
2018-04-25T06:15:22.593Z,84.00
2018-04-25T06:20:16.946Z,83.30
2018-04-25T06:25:11.780Z,83.20
2018-04-25T06:30:06.926Z,85.80
2018-04-25T06:35:01.307Z,85.80
2018-04-25T06:39:55.682Z,85.10
2018-04-25T06:44:50.181Z,85.70
2018-04-25T06:49:44.675Z,85.40
2018-04-25T06:54:39.204Z,85.30
2018-04-25T06:59:34.378Z,86.90
2018-04-25T07:04:28.783Z,86.80
2018-04-25T07:09:23.185Z,87.40
2018-04-25T07:14:17.736Z,87.70
2018-04-25T07:19:12.881Z,88.70
2018-04-25T07:24:07.413Z,88.60
2018-04-25T07:29:01.820Z,88.20
2018-04-25T07:33:56.220Z,87.90
2018-04-25T07:38:50.599Z,87.00
2018-04-25T07:43:45.806Z,85.70
2018-04-25T07:48:41.085Z,85.70
2018-04-25T07:53:35.457Z,85.60
2018-04-25T07:58:29.849Z,83.10
2018-04-25T08:03:24.246Z,81.60
2018-04-25T08:08:19.390Z,75.30
2018-04-25T08:13:30.934Z,75.20
2018-04-25T08:34:44.654Z,67.80
2018-04-25T08:39:38.996Z,69.60
2018-04-25T08:44:33.384Z,66.30
2018-04-25T08:49:27.801Z,65.80
2018-04-25T08:54:22.192Z,63.30
2018-04-25T08:59:17.550Z,46.10
2018-04-25T09:04:12.806Z,42.10
2018-04-25T09:09:07.204Z,41.90
2018-04-25T09:14:02.412Z,41.60
2018-04-25T09:18:57.556Z,43.90
2018-04-25T09:23:51.925Z,43.70
2018-04-25T09:28:46.381Z,39.60
2018-04-25T09:33:40.769Z,29.80
2018-04-25T09:38:35.190Z,26.80
2018-04-25T09:43:30.857Z,25.30
2018-04-25T09:48:25.474Z,25.20
2018-04-25T09:53:20.193Z,26.10
2018-04-25T09:58:14.867Z,27.10
2018-04-25T10:03:14.506Z,30.00
2018-04-25T10:08:08.865Z,33.40
2018-04-25T10:13:03.240Z,36.00
2018-04-25T10:17:58.378Z,44.00
2018-04-25T10:22:52.769Z,43.80
2018-04-25T10:27:47.929Z,47.50
2018-04-25T10:32:42.339Z,47.40
2018-04-25T10:37:36.653Z,47.60
2018-04-25T10:42:31.046Z,47.50
2018-04-25T10:47:25.450Z,47.60
2018-04-25T10:52:19.840Z,47.60
2018-04-25T10:57:14.257Z,46.90
2018-04-25T11:02:08.384Z,47.10
2018-04-25T11:07:02.964Z,47.90
2018-04-25T11:11:57.329Z,49.60
2018-04-25T11:16:51.712Z,50.10
2018-04-25T11:21:47.006Z,47.50
2018-04-25T11:26:41.218Z,47.40
2018-04-25T11:31:35.782Z,47.30
2018-04-25T11:36:30.186Z,47.10
2018-04-25T11:41:24.553Z,47.90
2018-04-25T11:46:19.704Z,48.10
2018-04-25T11:51:14.109Z,48.00
2018-04-25T11:56:08.460Z,47.40
2018-04-25T12:01:02.856Z,46.70
2018-04-25T12:05:57.521Z,47.00
2018-04-25T12:10:51.927Z,47.40
2018-04-25T12:15:46.346Z,48.40
2018-04-25T12:20:40.513Z,48.50
2018-04-25T12:25:35.125Z,47.60
2018-04-25T12:30:29.857Z,46.80
2018-04-25T12:35:24.261Z,47.10
2018-04-25T12:40:18.716Z,47.70
2018-04-25T12:45:13.933Z,47.90
2018-04-25T12:50:09.257Z,48.50
2018-04-25T12:55:04.475Z,47.80
2018-04-25T12:59:58.861Z,47.70
2018-04-25T13:04:53.280Z,46.80
2018-04-25T13:09:48.463Z,46.30
2018-04-25T13:14:43.133Z,46.20
2018-04-25T13:19:38.401Z,45.00
2018-04-25T13:24:32.785Z,45.00
2018-04-25T13:29:26.929Z,44.30
2018-04-25T13:34:21.291Z,44.50
2018-04-25T13:39:15.676Z,44.30
2018-04-25T13:44:10.048Z,44.10
2018-04-25T13:49:04.610Z,43.80
2018-04-25T13:53:59.006Z,43.80
2018-04-25T13:58:53.664Z,44.30
2018-04-25T14:03:48.031Z,43.70
2018-04-25T14:08:44.212Z,44.40
2018-04-25T14:13:39.476Z,45.10
2018-04-25T14:18:33.863Z,45.10
2018-04-25T14:23:28.230Z,45.80
2018-04-25T14:28:22.665Z,47.30
2018-04-25T14:33:17.068Z,46.80
2018-04-25T14:38:12.190Z,45.20
2018-04-25T14:43:07.453Z,44.20
2018-04-25T14:48:01.896Z,44.20
2018-04-25T14:52:57.074Z,41.50
2018-04-25T14:57:51.448Z,41.50
2018-04-25T15:02:45.819Z,41.80
2018-04-25T15:07:40.283Z,42.20
2018-04-25T15:12:34.640Z,41.40
2018-04-25T15:17:29.833Z,41.80
2018-04-25T15:22:24.234Z,41.70
2018-04-25T15:27:18.828Z,41.80
2018-04-25T15:32:13.276Z,41.70
2018-04-25T15:37:08.444Z,45.50
2018-04-25T15:42:03.380Z,45.50
2018-04-25T15:46:58.046Z,46.20
2018-04-25T15:51:53.292Z,46.60
2018-04-25T15:56:47.740Z,46.60
2018-04-25T16:01:43.249Z,46.50
2018-04-25T16:06:38.549Z,46.20
2018-04-25T16:11:33.108Z,46.20
2018-04-25T16:16:28.661Z,46.90
2018-04-25T16:21:23.036Z,46.80
2018-04-25T16:26:18.210Z,46.70
2018-04-25T16:31:16.741Z,46.60
2018-04-25T16:36:11.948Z,46.90
2018-04-25T16:41:06.649Z,46.30
2018-04-25T16:46:01.055Z,46.20
2018-04-25T16:50:55.778Z,46.00
2018-04-25T16:55:51.099Z,46.70
2018-04-25T17:00:45.487Z,46.70
2018-04-25T17:05:39.932Z,47.40
2018-04-25T17:10:35.078Z,49.00
2018-04-25T17:15:30.337Z,49.00
2018-04-25T17:20:24.708Z,48.90
2018-04-25T17:25:18.932Z,48.80
2018-04-25T17:30:13.265Z,48.30
2018-04-25T17:35:07.899Z,48.40
2018-04-25T17:40:03.078Z,49.30
2018-04-25T17:44:57.631Z,49.20
2018-04-25T17:49:52.692Z,50.40
2018-04-25T17:54:47.065Z,50.40
2018-04-25T17:59:41.805Z,50.80
2018-04-25T18:04:36.241Z,51.80
2018-04-25T18:09:30.671Z,52.00
2018-04-25T18:14:25.611Z,53.30
2018-04-25T18:19:19.970Z,53.30
2018-04-25T18:24:14.586Z,54.40
2018-04-25T18:29:09.153Z,54.80
2018-04-25T18:34:03.717Z,56.00
2018-04-25T18:38:58.837Z,57.40
2018-04-25T18:43:54.271Z,58.10
2018-04-25T18:48:48.863Z,58.10
2018-04-25T18:53:44.337Z,60.00
2018-04-25T18:58:38.720Z,60.00
2018-04-25T19:03:33.117Z,61.20
2018-04-25T19:08:27.678Z,62.40
2018-04-25T19:13:22.344Z,64.20
2018-04-25T19:18:16.745Z,64.90
2018-04-25T19:23:11.106Z,64.50
2018-04-25T19:28:05.456Z,64.10
2018-04-25T19:33:00.042Z,65.40
2018-04-25T19:37:55.359Z,65.60
2018-04-25T19:42:50.486Z,66.40
2018-04-25T19:47:45.462Z,67.00
2018-04-25T19:52:40.474Z,66.90
2018-04-25T19:57:36.480Z,67.70
2018-04-25T20:02:31.144Z,67.70
2018-04-25T20:07:26.068Z,68.50
2018-04-25T20:12:21.173Z,69.30
2018-04-25T20:17:15.845Z,69.20
2018-04-25T20:22:10.223Z,69.00
2018-04-25T20:27:04.657Z,68.50
2018-04-25T20:31:59.011Z,68.00
2018-04-25T20:36:54.216Z,66.20
2018-04-25T20:41:49.342Z,65.90
2018-04-25T20:46:43.734Z,65.90
2018-04-25T20:51:38.129Z,65.90
2018-04-25T20:56:33.083Z,66.00
2018-04-25T21:01:28.277Z,64.50
2018-04-25T21:06:22.961Z,65.20
2018-04-25T21:11:17.586Z,64.00
2018-04-25T21:16:11.983Z,66.10
2018-04-25T21:21:06.515Z,65.10
2018-04-25T21:26:01.124Z,63.60
2018-04-25T21:30:55.571Z,62.40
2018-04-25T21:35:50.393Z,61.50
2018-04-25T21:40:44.940Z,60.70
2018-04-25T21:45:39.315Z,60.60
2018-04-25T21:50:33.766Z,61.20
2018-04-25T21:55:28.970Z,61.40
2018-04-25T22:00:23.350Z,61.30
2018-04-25T22:05:17.801Z,61.80
2018-04-25T22:10:12.985Z,62.30
2018-04-25T22:15:07.422Z,62.30
2018-04-25T22:20:02.632Z,62.80
2018-04-25T22:24:57.092Z,62.80
2018-04-25T22:29:51.348Z,63.00
2018-04-25T22:34:45.900Z,63.30
2018-04-25T22:39:40.318Z,64.00
2018-04-25T22:44:34.686Z,63.50
2018-04-25T22:49:29.897Z,63.70
2018-04-25T22:54:25.216Z,64.70
2018-04-25T22:59:20.386Z,64.80
2018-04-25T23:04:14.784Z,64.80
2018-04-25T23:09:09.123Z,64.80
2018-04-25T23:14:03.499Z,65.90
2018-04-25T23:18:57.851Z,66.10
2018-04-25T23:23:53.230Z,67.00
2018-04-25T23:28:47.828Z,66.90
2018-04-25T23:33:42.380Z,66.40
2018-04-25T23:38:36.839Z,67.20
2018-04-25T23:43:31.200Z,67.30
2018-04-25T23:48:26.460Z,68.20
2018-04-25T23:53:20.834Z,68.20
2018-04-25T23:58:15.944Z,68.70
